sensor_id;sensor_type;location;lat;lon;timestamp;pressure;altitude;pressure_sealevel;temperature;humidity
62952;BME280;52163;52.212;-1.002;2022-11-25T00:01:16;99040.25;;;6.57;95.21
62952;BME280;52163;52.212;-1.002;2022-11-25T00:03:43;99043.20;;;6.60;94.95
62952;BME280;52163;52.212;-1.002;2022-11-25T00:08:38;99046.66;;;6.66;94.84
62952;BME280;52163;52.212;-1.002;2022-11-25T00:11:04;99050.11;;;6.70;94.64
62952;BME280;52163;52.212;-1.002;2022-11-25T00:13:31;99059.15;;;6.73;94.53
62952;BME280;52163;52.212;-1.002;2022-11-25T00:16:00;99066.05;;;6.75;94.30
62952;BME280;52163;52.212;-1.002;2022-11-25T00:18:26;99072.85;;;6.76;94.06
62952;BME280;52163;52.212;-1.002;2022-11-25T00:20:52;99079.52;;;6.73;93.88
62952;BME280;52163;52.212;-1.002;2022-11-25T00:23:17;99085.60;;;6.69;93.62
62952;BME280;52163;52.212;-1.002;2022-11-25T00:25:43;99093.61;;;6.64;93.39
62952;BME280;52163;52.212;-1.002;2022-11-25T00:28:08;99098.17;;;6.59;93.42
62952;BME280;52163;52.212;-1.002;2022-11-25T00:30:33;99104.02;;;6.55;93.15
62952;BME280;52163;52.212;-1.002;2022-11-25T00:32:59;99106.73;;;6.51;93.43
62952;BME280;52163;52.212;-1.002;2022-11-25T00:35:24;99110.10;;;6.48;93.34
62952;BME280;52163;52.212;-1.002;2022-11-25T00:37:49;99104.84;;;6.45;93.37
62952;BME280;52163;52.212;-1.002;2022-11-25T00:40:15;99107.98;;;6.40;93.36
62952;BME280;52163;52.212;-1.002;2022-11-25T00:42:40;99109.10;;;6.36;93.47
62952;BME280;52163;52.212;-1.002;2022-11-25T00:45:24;99107.06;;;6.33;93.50
62952;BME280;52163;52.212;-1.002;2022-11-25T00:47:52;99106.31;;;6.31;93.44
62952;BME280;52163;52.212;-1.002;2022-11-25T00:50:17;99109.69;;;6.30;93.52
62952;BME280;52163;52.212;-1.002;2022-11-25T00:52:42;99106.09;;;6.31;93.53
62952;BME280;52163;52.212;-1.002;2022-11-25T00:55:08;99104.52;;;6.34;93.78
62952;BME280;52163;52.212;-1.002;2022-11-25T00:57:33;99106.17;;;6.36;93.74
62952;BME280;52163;52.212;-1.002;2022-11-25T00:59:58;99101.03;;;6.36;93.68
62952;BME280;52163;52.212;-1.002;2022-11-25T01:02:24;99103.31;;;6.36;93.71
62952;BME280;52163;52.212;-1.002;2022-11-25T01:04:49;99107.84;;;6.37;93.58
62952;BME280;52163;52.212;-1.002;2022-11-25T01:07:15;99105.67;;;6.38;93.65
62952;BME280;52163;52.212;-1.002;2022-11-25T01:09:41;99112.73;;;6.40;93.48
62952;BME280;52163;52.212;-1.002;2022-11-25T01:12:06;99119.52;;;6.41;93.69
62952;BME280;52163;52.212;-1.002;2022-11-25T01:14:32;99122.65;;;6.41;93.71
62952;BME280;52163;52.212;-1.002;2022-11-25T01:16:58;99127.98;;;6.40;93.52
62952;BME280;52163;52.212;-1.002;2022-11-25T01:19:23;99131.40;;;6.39;93.49
62952;BME280;52163;52.212;-1.002;2022-11-25T01:21:49;99138.08;;;6.36;93.41
62952;BME280;52163;52.212;-1.002;2022-11-25T01:24:16;99135.11;;;6.33;93.34
62952;BME280;52163;52.212;-1.002;2022-11-25T01:26:42;99137.54;;;6.31;93.37
62952;BME280;52163;52.212;-1.002;2022-11-25T01:29:13;99141.85;;;6.29;93.53
62952;BME280;52163;52.212;-1.002;2022-11-25T01:31:40;99151.67;;;6.29;93.60
62952;BME280;52163;52.212;-1.002;2022-11-25T01:34:17;99150.81;;;6.29;93.67
62952;BME280;52163;52.212;-1.002;2022-11-25T01:36:43;99155.05;;;6.29;93.78
62952;BME280;52163;52.212;-1.002;2022-11-25T01:39:15;99162.52;;;6.30;93.74
62952;BME280;52163;52.212;-1.002;2022-11-25T01:41:41;99161.98;;;6.29;93.77
62952;BME280;52163;52.212;-1.002;2022-11-25T01:44:17;99164.02;;;6.30;93.82
62952;BME280;52163;52.212;-1.002;2022-11-25T01:49:19;99165.33;;;6.35;94.10
62952;BME280;52163;52.212;-1.002;2022-11-25T01:51:53;99170.82;;;6.39;94.25
62952;BME280;52163;52.212;-1.002;2022-11-25T01:54:23;99176.39;;;6.46;94.48
62952;BME280;52163;52.212;-1.002;2022-11-25T01:56:58;99177.80;;;6.51;94.58
62952;BME280;52163;52.212;-1.002;2022-11-25T01:59:26;99183.77;;;6.57;94.62
62952;BME280;52163;52.212;-1.002;2022-11-25T02:01:53;99190.00;;;6.61;94.36
62952;BME280;52163;52.212;-1.002;2022-11-25T02:04:20;99193.73;;;6.63;94.48
62952;BME280;52163;52.212;-1.002;2022-11-25T02:06:54;99200.44;;;6.64;94.33
62952;BME280;52163;52.212;-1.002;2022-11-25T02:09:21;99205.60;;;6.66;94.65
62952;BME280;52163;52.212;-1.002;2022-11-25T02:11:48;99211.00;;;6.67;94.63
62952;BME280;52163;52.212;-1.002;2022-11-25T02:14:14;99218.27;;;6.68;94.64
62952;BME280;52163;52.212;-1.002;2022-11-25T02:16:41;99219.20;;;6.71;94.65
62952;BME280;52163;52.212;-1.002;2022-11-25T02:19:16;99224.17;;;6.72;94.56
62952;BME280;52163;52.212;-1.002;2022-11-25T02:21:49;99230.05;;;6.74;94.75
62952;BME280;52163;52.212;-1.002;2022-11-25T02:24:30;99238.44;;;6.74;94.57
62952;BME280;52163;52.212;-1.002;2022-11-25T02:27:01;99246.61;;;6.76;94.55
62952;BME280;52163;52.212;-1.002;2022-11-25T02:29:27;99256.00;;;6.77;94.60
62952;BME280;52163;52.212;-1.002;2022-11-25T02:31:52;99263.02;;;6.79;94.51
62952;BME280;52163;52.212;-1.002;2022-11-25T02:34:18;99272.13;;;6.83;94.74
62952;BME280;52163;52.212;-1.002;2022-11-25T02:36:43;99276.09;;;6.84;94.46
62952;BME280;52163;52.212;-1.002;2022-11-25T02:39:09;99280.09;;;6.84;94.46
62952;BME280;52163;52.212;-1.002;2022-11-25T02:41:46;99289.80;;;6.83;94.19
62952;BME280;52163;52.212;-1.002;2022-11-25T02:44:14;99295.13;;;6.80;94.17
62952;BME280;52163;52.212;-1.002;2022-11-25T02:46:40;99300.81;;;6.76;94.15
62952;BME280;52163;52.212;-1.002;2022-11-25T02:49:05;99309.48;;;6.72;94.13
62952;BME280;52163;52.212;-1.002;2022-11-25T02:51:31;99316.17;;;6.69;94.08
62952;BME280;52163;52.212;-1.002;2022-11-25T02:53:58;99319.65;;;6.66;94.21
62952;BME280;52163;52.212;-1.002;2022-11-25T02:56:27;99321.63;;;6.63;94.25
62952;BME280;52163;52.212;-1.002;2022-11-25T02:58:53;99332.15;;;6.60;94.45
62952;BME280;52163;52.212;-1.002;2022-11-25T03:01:19;99328.95;;;6.56;94.40
62952;BME280;52163;52.212;-1.002;2022-11-25T03:03:45;99336.21;;;6.51;94.52
62952;BME280;52163;52.212;-1.002;2022-11-25T03:06:10;99343.11;;;6.48;94.51
62952;BME280;52163;52.212;-1.002;2022-11-25T03:08:36;99346.45;;;6.45;94.69
62952;BME280;52163;52.212;-1.002;2022-11-25T03:11:02;99349.57;;;6.43;94.83
62952;BME280;52163;52.212;-1.002;2022-11-25T03:13:28;99351.42;;;6.41;94.97
62952;BME280;52163;52.212;-1.002;2022-11-25T03:15:53;99348.14;;;6.40;95.12
62952;BME280;52163;52.212;-1.002;2022-11-25T03:18:19;99349.77;;;6.39;95.20
62952;BME280;52163;52.212;-1.002;2022-11-25T03:20:44;99353.12;;;6.35;95.22
62952;BME280;52163;52.212;-1.002;2022-11-25T03:23:10;99354.71;;;6.33;95.16
62952;BME280;52163;52.212;-1.002;2022-11-25T03:25:35;99362.25;;;6.30;95.25
62952;BME280;52163;52.212;-1.002;2022-11-25T03:28:01;99368.16;;;6.28;95.31
62952;BME280;52163;52.212;-1.002;2022-11-25T03:30:28;99368.45;;;6.26;95.43
62952;BME280;52163;52.212;-1.002;2022-11-25T03:32:53;99378.35;;;6.24;95.47
62952;BME280;52163;52.212;-1.002;2022-11-25T03:35:19;99383.77;;;6.25;95.72
62952;BME280;52163;52.212;-1.002;2022-11-25T03:37:45;99387.09;;;6.25;95.76
62952;BME280;52163;52.212;-1.002;2022-11-25T03:40:12;99395.17;;;6.25;95.88
62952;BME280;52163;52.212;-1.002;2022-11-25T03:42:39;99399.85;;;6.23;96.00
62952;BME280;52163;52.212;-1.002;2022-11-25T03:45:06;99401.73;;;6.21;96.00
62952;BME280;52163;52.212;-1.002;2022-11-25T03:47:32;99403.45;;;6.19;96.07
62952;BME280;52163;52.212;-1.002;2022-11-25T03:49:57;99406.30;;;6.18;96.36
62952;BME280;52163;52.212;-1.002;2022-11-25T03:52:23;99412.76;;;6.18;96.55
62952;BME280;52163;52.212;-1.002;2022-11-25T03:54:48;99417.45;;;6.19;96.79
62952;BME280;52163;52.212;-1.002;2022-11-25T03:57:14;99418.46;;;6.19;96.94
62952;BME280;52163;52.212;-1.002;2022-11-25T03:59:39;99426.48;;;6.18;96.83
62952;BME280;52163;52.212;-1.002;2022-11-25T04:02:04;99434.71;;;6.15;96.79
62952;BME280;52163;52.212;-1.002;2022-11-25T04:04:30;99439.66;;;6.11;96.81
62952;BME280;52163;52.212;-1.002;2022-11-25T04:06:55;99447.84;;;6.09;96.93
62952;BME280;52163;52.212;-1.002;2022-11-25T04:09:21;99451.80;;;6.07;97.01
62952;BME280;52163;52.212;-1.002;2022-11-25T04:11:47;99453.44;;;6.09;97.53
62952;BME280;52163;52.212;-1.002;2022-11-25T04:14:31;99461.66;;;6.09;97.56
62952;BME280;52163;52.212;-1.002;2022-11-25T04:16:56;99469.86;;;6.10;97.72
62952;BME280;52163;52.212;-1.002;2022-11-25T04:19:22;99476.10;;;6.08;97.45
62952;BME280;52163;52.212;-1.002;2022-11-25T04:21:47;99484.18;;;6.05;97.26
62952;BME280;52163;52.212;-1.002;2022-11-25T04:24:13;99487.01;;;6.01;97.22
62952;BME280;52163;52.212;-1.002;2022-11-25T04:26:39;99488.73;;;5.98;97.23
62952;BME280;52163;52.212;-1.002;2022-11-25T04:29:04;99493.25;;;5.96;97.36
62952;BME280;52163;52.212;-1.002;2022-11-25T04:31:30;99494.80;;;5.97;97.52
62952;BME280;52163;52.212;-1.002;2022-11-25T04:33:56;99498.63;;;5.97;97.84
62952;BME280;52163;52.212;-1.002;2022-11-25T04:36:21;99500.48;;;5.98;97.97
62952;BME280;52163;52.212;-1.002;2022-11-25T04:38:46;99500.34;;;5.98;97.98
62952;BME280;52163;52.212;-1.002;2022-11-25T04:41:13;99502.53;;;5.96;98.00
62952;BME280;52163;52.212;-1.002;2022-11-25T04:43:39;99506.12;;;5.95;98.03
62952;BME280;52163;52.212;-1.002;2022-11-25T04:46:04;99510.20;;;5.94;98.09
62952;BME280;52163;52.212;-1.002;2022-11-25T04:48:30;99518.09;;;5.94;98.15
62952;BME280;52163;52.212;-1.002;2022-11-25T04:50:55;99521.73;;;5.94;98.19
62952;BME280;52163;52.212;-1.002;2022-11-25T04:53:21;99528.31;;;5.96;98.40
62952;BME280;52163;52.212;-1.002;2022-11-25T04:55:46;99529.10;;;5.98;98.53
62952;BME280;52163;52.212;-1.002;2022-11-25T04:58:12;99539.01;;;5.99;98.73
62952;BME280;52163;52.212;-1.002;2022-11-25T05:00:38;99546.55;;;5.99;98.79
62952;BME280;52163;52.212;-1.002;2022-11-25T05:03:04;99553.67;;;5.97;98.53
62952;BME280;52163;52.212;-1.002;2022-11-25T05:05:30;99563.64;;;5.94;98.50
62952;BME280;52163;52.212;-1.002;2022-11-25T05:07:56;99573.89;;;5.93;98.57
62952;BME280;52163;52.212;-1.002;2022-11-25T05:10:21;99582.66;;;5.93;98.72
62952;BME280;52163;52.212;-1.002;2022-11-25T05:12:47;99594.59;;;5.93;98.85
62952;BME280;52163;52.212;-1.002;2022-11-25T05:15:12;99601.95;;;5.93;99.10
62952;BME280;52163;52.212;-1.002;2022-11-25T05:17:38;99609.41;;;5.94;99.27
62952;BME280;52163;52.212;-1.002;2022-11-25T05:20:05;99614.46;;;5.95;99.32
62952;BME280;52163;52.212;-1.002;2022-11-25T05:22:32;99622.73;;;5.94;99.47
62952;BME280;52163;52.212;-1.002;2022-11-25T05:24:58;99633.25;;;5.94;99.47
62952;BME280;52163;52.212;-1.002;2022-11-25T05:27:24;99637.42;;;5.94;99.50
62952;BME280;52163;52.212;-1.002;2022-11-25T05:29:50;99642.48;;;5.95;99.68
62952;BME280;52163;52.212;-1.002;2022-11-25T05:32:16;99649.25;;;5.96;99.83
62952;BME280;52163;52.212;-1.002;2022-11-25T05:34:41;99652.90;;;5.97;99.85
62952;BME280;52163;52.212;-1.002;2022-11-25T05:37:08;99656.28;;;5.96;99.91
62952;BME280;52163;52.212;-1.002;2022-11-25T05:39:34;99664.55;;;5.95;99.83
62952;BME280;52163;52.212;-1.002;2022-11-25T05:41:59;99671.65;;;5.94;99.90
62952;BME280;52163;52.212;-1.002;2022-11-25T05:44:25;99676.08;;;5.93;99.93
62952;BME280;52163;52.212;-1.002;2022-11-25T05:46:51;99676.85;;;5.92;99.94
62952;BME280;52163;52.212;-1.002;2022-11-25T05:49:17;99678.80;;;5.91;99.96
62952;BME280;52163;52.212;-1.002;2022-11-25T05:51:43;99684.54;;;5.92;100.00
62952;BME280;52163;52.212;-1.002;2022-11-25T05:54:09;99689.40;;;5.93;100.00
62952;BME280;52163;52.212;-1.002;2022-11-25T05:56:34;99695.70;;;5.90;99.91
62952;BME280;52163;52.212;-1.002;2022-11-25T05:59:00;99699.34;;;5.91;100.00
62952;BME280;52163;52.212;-1.002;2022-11-25T06:01:26;99706.89;;;5.87;100.00
62952;BME280;52163;52.212;-1.002;2022-11-25T06:03:51;99711.97;;;5.84;99.97
62952;BME280;52163;52.212;-1.002;2022-11-25T06:06:17;99717.61;;;5.80;99.78
62952;BME280;52163;52.212;-1.002;2022-11-25T06:08:43;99726.16;;;5.77;99.79
62952;BME280;52163;52.212;-1.002;2022-11-25T06:11:16;99729.91;;;5.76;99.90
62952;BME280;52163;52.212;-1.002;2022-11-25T06:13:43;99739.28;;;5.78;100.00
62952;BME280;52163;52.212;-1.002;2022-11-25T06:16:22;99745.82;;;5.80;100.00
62952;BME280;52163;52.212;-1.002;2022-11-25T06:18:47;99748.82;;;5.80;100.00
62952;BME280;52163;52.212;-1.002;2022-11-25T06:21:13;99759.95;;;5.78;99.97
62952;BME280;52163;52.212;-1.002;2022-11-25T06:23:39;99766.17;;;5.73;99.85
62952;BME280;52163;52.212;-1.002;2022-11-25T06:26:12;99772.83;;;5.70;99.82
62952;BME280;52163;52.212;-1.002;2022-11-25T06:28:37;99777.92;;;5.66;99.61
62952;BME280;52163;52.212;-1.002;2022-11-25T06:31:06;99782.46;;;5.63;99.69
62952;BME280;52163;52.212;-1.002;2022-11-25T06:33:32;99787.29;;;5.61;99.82
62952;BME280;52163;52.212;-1.002;2022-11-25T06:35:57;99795.32;;;5.58;99.91
62952;BME280;52163;52.212;-1.002;2022-11-25T06:38:23;99801.45;;;5.58;99.99
62952;BME280;52163;52.212;-1.002;2022-11-25T06:40:48;99809.41;;;5.57;99.96
62952;BME280;52163;52.212;-1.002;2022-11-25T06:43:14;99823.33;;;5.55;100.00
62952;BME280;52163;52.212;-1.002;2022-11-25T06:45:39;99829.23;;;5.52;100.00
62952;BME280;52163;52.212;-1.002;2022-11-25T06:48:04;99838.31;;;5.49;99.96
62952;BME280;52163;52.212;-1.002;2022-11-25T06:50:30;99842.11;;;5.47;99.91
62952;BME280;52163;52.212;-1.002;2022-11-25T06:52:55;99844.41;;;5.46;99.99
62952;BME280;52163;52.212;-1.002;2022-11-25T06:55:21;99851.75;;;5.47;100.00
62952;BME280;52163;52.212;-1.002;2022-11-25T06:57:46;99855.41;;;5.51;100.00
62952;BME280;52163;52.212;-1.002;2022-11-25T07:00:12;99861.58;;;5.54;100.00
62952;BME280;52163;52.212;-1.002;2022-11-25T07:02:38;99866.39;;;5.52;100.00
62952;BME280;52163;52.212;-1.002;2022-11-25T07:05:04;99868.61;;;5.50;99.90
62952;BME280;52163;52.212;-1.002;2022-11-25T07:07:29;99872.27;;;5.47;99.78
62952;BME280;52163;52.212;-1.002;2022-11-25T07:09:55;99878.35;;;5.44;99.55
62952;BME280;52163;52.212;-1.002;2022-11-25T07:12:20;99888.19;;;5.40;99.44
62952;BME280;52163;52.212;-1.002;2022-11-25T07:14:49;99896.87;;;5.38;99.57
62952;BME280;52163;52.212;-1.002;2022-11-25T07:17:15;99906.82;;;5.38;99.79
62952;BME280;52163;52.212;-1.002;2022-11-25T07:19:40;99911.40;;;5.38;99.90
62952;BME280;52163;52.212;-1.002;2022-11-25T07:22:06;99921.61;;;5.33;99.36
62952;BME280;52163;52.212;-1.002;2022-11-25T07:24:31;99925.62;;;5.30;99.48
62952;BME280;52163;52.212;-1.002;2022-11-25T07:26:57;99931.88;;;5.27;99.47
62952;BME280;52163;52.212;-1.002;2022-11-25T07:29:23;99938.79;;;5.26;99.63
62952;BME280;52163;52.212;-1.002;2022-11-25T07:31:49;99944.70;;;5.26;99.86
62952;BME280;52163;52.212;-1.002;2022-11-25T07:34:17;99952.61;;;5.26;99.83
62952;BME280;52163;52.212;-1.002;2022-11-25T07:36:43;99963.30;;;5.26;99.85
62952;BME280;52163;52.212;-1.002;2022-11-25T07:39:15;99972.97;;;5.25;99.79
62952;BME280;52163;52.212;-1.002;2022-11-25T07:41:41;99983.85;;;5.24;99.91
62952;BME280;52163;52.212;-1.002;2022-11-25T07:44:08;99991.39;;;5.24;99.88
62952;BME280;52163;52.212;-1.002;2022-11-25T07:46:37;99994.98;;;5.22;99.76
62952;BME280;52163;52.212;-1.002;2022-11-25T07:49:05;100001.20;;;5.20;99.51
62952;BME280;52163;52.212;-1.002;2022-11-25T07:51:32;100010.20;;;5.18;99.23
62952;BME280;52163;52.212;-1.002;2022-11-25T07:53:59;100018.18;;;5.16;99.30
62952;BME280;52163;52.212;-1.002;2022-11-25T07:56:26;100023.30;;;5.16;99.32
62952;BME280;52163;52.212;-1.002;2022-11-25T07:58:51;100031.84;;;5.16;99.49
62952;BME280;52163;52.212;-1.002;2022-11-25T08:01:18;100039.15;;;5.17;99.43
62952;BME280;52163;52.212;-1.002;2022-11-25T08:03:45;100046.20;;;5.16;99.10
62952;BME280;52163;52.212;-1.002;2022-11-25T08:06:14;100052.44;;;5.14;98.83
62952;BME280;52163;52.212;-1.002;2022-11-25T08:08:40;100062.13;;;5.13;98.96
62952;BME280;52163;52.212;-1.002;2022-11-25T08:11:18;100071.18;;;5.14;98.98
62952;BME280;52163;52.212;-1.002;2022-11-25T08:13:44;100083.06;;;5.14;99.12
62952;BME280;52163;52.212;-1.002;2022-11-25T08:16:15;100093.83;;;5.16;99.32
62952;BME280;52163;52.212;-1.002;2022-11-25T08:18:41;100099.30;;;5.19;99.49
62952;BME280;52163;52.212;-1.002;2022-11-25T08:21:09;100111.34;;;5.20;99.02
62952;BME280;52163;52.212;-1.002;2022-11-25T08:23:36;100119.90;;;5.21;99.09
62952;BME280;52163;52.212;-1.002;2022-11-25T08:26:04;100121.06;;;5.22;99.08
62952;BME280;52163;52.212;-1.002;2022-11-25T08:28:30;100122.87;;;5.25;99.06
62952;BME280;52163;52.212;-1.002;2022-11-25T08:31:07;100130.34;;;5.27;98.93
62952;BME280;52163;52.212;-1.002;2022-11-25T08:33:33;100135.41;;;5.31;98.99
62952;BME280;52163;52.212;-1.002;2022-11-25T08:35:59;100136.52;;;5.33;99.04
62952;BME280;52163;52.212;-1.002;2022-11-25T08:38:25;100139.14;;;5.34;98.74
62952;BME280;52163;52.212;-1.002;2022-11-25T08:40:51;100144.23;;;5.33;98.50
62952;BME280;52163;52.212;-1.002;2022-11-25T08:43:16;100150.65;;;5.35;98.63
62952;BME280;52163;52.212;-1.002;2022-11-25T08:45:42;100159.67;;;5.36;98.57
62952;BME280;52163;52.212;-1.002;2022-11-25T08:48:08;100162.16;;;5.40;98.78
62952;BME280;52163;52.212;-1.002;2022-11-25T08:50:34;100171.58;;;5.45;98.91
62952;BME280;52163;52.212;-1.002;2022-11-25T08:53:00;100172.74;;;5.46;98.62
62952;BME280;52163;52.212;-1.002;2022-11-25T08:55:26;100182.60;;;5.45;98.32
62952;BME280;52163;52.212;-1.002;2022-11-25T08:57:53;100188.55;;;5.45;98.24
62952;BME280;52163;52.212;-1.002;2022-11-25T09:00:19;100192.57;;;5.45;98.43
62952;BME280;52163;52.212;-1.002;2022-11-25T09:02:45;100199.10;;;5.48;98.57
62952;BME280;52163;52.212;-1.002;2022-11-25T09:05:13;100207.14;;;5.53;99.08
62952;BME280;52163;52.212;-1.002;2022-11-25T09:07:38;100214.20;;;5.60;99.15
62952;BME280;52163;52.212;-1.002;2022-11-25T09:10:09;100217.46;;;5.65;99.27
62952;BME280;52163;52.212;-1.002;2022-11-25T09:12:36;100219.55;;;5.70;98.84
62952;BME280;52163;52.212;-1.002;2022-11-25T09:15:03;100221.42;;;5.71;98.54
62952;BME280;52163;52.212;-1.002;2022-11-25T09:17:28;100226.40;;;5.69;98.14
62952;BME280;52163;52.212;-1.002;2022-11-25T09:19:54;100230.95;;;5.69;98.13
62952;BME280;52163;52.212;-1.002;2022-11-25T09:22:19;100237.39;;;5.70;98.07
62952;BME280;52163;52.212;-1.002;2022-11-25T09:24:44;100242.84;;;5.74;98.47
62952;BME280;52163;52.212;-1.002;2022-11-25T09:27:10;100246.64;;;5.79;98.70
62952;BME280;52163;52.212;-1.002;2022-11-25T09:29:35;100251.17;;;5.84;98.71
62952;BME280;52163;52.212;-1.002;2022-11-25T09:32:01;100253.77;;;5.88;98.88
62952;BME280;52163;52.212;-1.002;2022-11-25T09:34:26;100252.25;;;5.91;98.68
62952;BME280;52163;52.212;-1.002;2022-11-25T09:36:52;100251.48;;;5.92;98.62
62952;BME280;52163;52.212;-1.002;2022-11-25T09:39:17;100253.70;;;5.94;98.41
62952;BME280;52163;52.212;-1.002;2022-11-25T09:45:04;100256.75;;;6.00;98.75
62952;BME280;52163;52.212;-1.002;2022-11-25T09:54:06;100257.86;;;6.15;98.55
62952;BME280;52163;52.212;-1.002;2022-11-25T09:56:41;100259.84;;;6.18;98.39
62952;BME280;52163;52.212;-1.002;2022-11-25T10:01:45;100265.48;;;6.25;98.30
62952;BME280;52163;52.212;-1.002;2022-11-25T10:04:28;100271.70;;;6.31;98.39
62952;BME280;52163;52.212;-1.002;2022-11-25T10:06:57;100274.10;;;6.35;98.23
62952;BME280;52163;52.212;-1.002;2022-11-25T10:09:27;100279.31;;;6.41;98.26
62952;BME280;52163;52.212;-1.002;2022-11-25T10:14:27;100290.84;;;6.49;97.77
62952;BME280;52163;52.212;-1.002;2022-11-25T10:24:43;100301.56;;;6.64;97.64
62952;BME280;52163;52.212;-1.002;2022-11-25T10:27:17;100306.88;;;6.71;97.66
62952;BME280;52163;52.212;-1.002;2022-11-25T10:29:49;100305.19;;;6.77;97.30
62952;BME280;52163;52.212;-1.002;2022-11-25T10:32:24;100304.02;;;6.83;97.33
62952;BME280;52163;52.212;-1.002;2022-11-25T10:34:57;100307.63;;;6.88;97.26
62952;BME280;52163;52.212;-1.002;2022-11-25T10:37:35;100316.33;;;6.94;97.07
62952;BME280;52163;52.212;-1.002;2022-11-25T10:40:04;100325.75;;;6.98;96.78
62952;BME280;52163;52.212;-1.002;2022-11-25T10:42:29;100319.61;;;7.03;96.80
62952;BME280;52163;52.212;-1.002;2022-11-25T10:44:56;100325.45;;;7.09;96.84
62952;BME280;52163;52.212;-1.002;2022-11-25T10:52:57;100336.17;;;7.30;96.40
62952;BME280;52163;52.212;-1.002;2022-11-25T10:55:29;100343.10;;;7.36;96.07
62952;BME280;52163;52.212;-1.002;2022-11-25T10:57:56;100346.64;;;7.39;96.13
62952;BME280;52163;52.212;-1.002;2022-11-25T11:00:26;100347.06;;;7.41;95.76
62952;BME280;52163;52.212;-1.002;2022-11-25T11:02:52;100352.52;;;7.44;95.78
62952;BME280;52163;52.212;-1.002;2022-11-25T11:05:23;100351.63;;;7.49;95.72
62952;BME280;52163;52.212;-1.002;2022-11-25T11:08:16;100359.83;;;7.53;95.65
62952;BME280;52163;52.212;-1.002;2022-11-25T11:10:43;100366.40;;;7.59;95.58
62952;BME280;52163;52.212;-1.002;2022-11-25T11:13:26;100375.11;;;7.64;95.63
62952;BME280;52163;52.212;-1.002;2022-11-25T11:15:57;100379.79;;;7.68;95.61
62952;BME280;52163;52.212;-1.002;2022-11-25T11:18:28;100386.86;;;7.71;95.51
62952;BME280;52163;52.212;-1.002;2022-11-25T11:20:58;100393.78;;;7.74;95.02
62952;BME280;52163;52.212;-1.002;2022-11-25T11:23:25;100395.73;;;7.77;95.28
62952;BME280;52163;52.212;-1.002;2022-11-25T11:26:02;100393.77;;;7.81;94.96
62952;BME280;52163;52.212;-1.002;2022-11-25T11:34:02;100408.33;;;7.99;94.37
62952;BME280;52163;52.212;-1.002;2022-11-25T11:41:53;100416.55;;;8.10;93.51
62952;BME280;52163;52.212;-1.002;2022-11-25T11:44:28;100427.27;;;8.14;93.43
62952;BME280;52163;52.212;-1.002;2022-11-25T11:52:34;100432.06;;;8.27;93.15
62952;BME280;52163;52.212;-1.002;2022-11-25T11:55:23;100432.96;;;8.31;92.90
62952;BME280;52163;52.212;-1.002;2022-11-25T11:57:57;100436.16;;;8.33;93.09
62952;BME280;52163;52.212;-1.002;2022-11-25T12:00:28;100440.45;;;8.35;92.94
62952;BME280;52163;52.212;-1.002;2022-11-25T12:03:23;100442.40;;;8.35;92.61
62952;BME280;52163;52.212;-1.002;2022-11-25T12:05:49;100447.18;;;8.38;92.98
62952;BME280;52163;52.212;-1.002;2022-11-25T12:08:51;100445.89;;;8.42;92.98
62952;BME280;52163;52.212;-1.002;2022-11-25T12:11:24;100456.11;;;8.46;92.53
62952;BME280;52163;52.212;-1.002;2022-11-25T12:14:11;100462.29;;;8.49;92.58
62952;BME280;52163;52.212;-1.002;2022-11-25T12:16:51;100461.80;;;8.52;92.05
62952;BME280;52163;52.212;-1.002;2022-11-25T12:19:25;100465.19;;;8.54;91.91
62952;BME280;52163;52.212;-1.002;2022-11-25T12:21:59;100474.40;;;8.57;91.63
62952;BME280;52163;52.212;-1.002;2022-11-25T12:27:24;100482.41;;;8.62;91.36
62952;BME280;52163;52.212;-1.002;2022-11-25T12:30:03;100486.16;;;8.67;91.37
62952;BME280;52163;52.212;-1.002;2022-11-25T12:37:46;100492.11;;;8.82;90.64
62952;BME280;52163;52.212;-1.002;2022-11-25T12:40:47;100491.22;;;8.85;89.88
62952;BME280;52163;52.212;-1.002;2022-11-25T12:48:40;100501.67;;;8.91;88.91
62952;BME280;52163;52.212;-1.002;2022-11-25T13:02:40;100526.97;;;9.09;88.67
62952;BME280;52163;52.212;-1.002;2022-11-25T13:15:58;100552.14;;;9.19;87.79
62952;BME280;52163;52.212;-1.002;2022-11-25T13:18:28;100559.41;;;9.22;87.93
62952;BME280;52163;52.212;-1.002;2022-11-25T13:20:56;100559.87;;;9.23;87.80
62952;BME280;52163;52.212;-1.002;2022-11-25T13:23:48;100566.20;;;9.23;87.48
62952;BME280;52163;52.212;-1.002;2022-11-25T13:31:56;100579.58;;;9.21;87.22
62952;BME280;52163;52.212;-1.002;2022-11-25T13:36:52;100584.61;;;9.22;87.00
62952;BME280;52163;52.212;-1.002;2022-11-25T13:39:35;100585.50;;;9.22;87.01
62952;BME280;52163;52.212;-1.002;2022-11-25T13:42:14;100589.69;;;9.19;86.98
62952;BME280;52163;52.212;-1.002;2022-11-25T13:44:56;100590.00;;;9.17;86.91
62952;BME280;52163;52.212;-1.002;2022-11-25T13:47:34;100590.94;;;9.12;86.68
62952;BME280;52163;52.212;-1.002;2022-11-25T13:50:04;100594.39;;;9.10;86.56
62952;BME280;52163;52.212;-1.002;2022-11-25T13:52:40;100603.04;;;9.10;86.61
62952;BME280;52163;52.212;-1.002;2022-11-25T13:55:34;100602.65;;;9.11;87.03
62952;BME280;52163;52.212;-1.002;2022-11-25T14:11:38;100615.63;;;9.05;87.24
62952;BME280;52163;52.212;-1.002;2022-11-25T14:25:26;100624.57;;;9.10;87.11
62952;BME280;52163;52.212;-1.002;2022-11-25T14:28:32;100625.38;;;9.07;87.36
62952;BME280;52163;52.212;-1.002;2022-11-25T14:31:05;100630.69;;;9.04;87.43
62952;BME280;52163;52.212;-1.002;2022-11-25T14:33:36;100635.02;;;9.01;87.45
62952;BME280;52163;52.212;-1.002;2022-11-25T14:36:10;100640.41;;;8.99;87.64
62952;BME280;52163;52.212;-1.002;2022-11-25T14:38:56;100645.35;;;8.99;87.83
62952;BME280;52163;52.212;-1.002;2022-11-25T14:41:39;100656.92;;;9.00;88.14
62952;BME280;52163;52.212;-1.002;2022-11-25T14:44:22;100655.16;;;9.00;87.93
62952;BME280;52163;52.212;-1.002;2022-11-25T14:46:54;100653.32;;;8.98;88.07
62952;BME280;52163;52.212;-1.002;2022-11-25T14:49:20;100654.83;;;8.96;87.84
62952;BME280;52163;52.212;-1.002;2022-11-25T14:51:49;100654.98;;;8.93;87.99
62952;BME280;52163;52.212;-1.002;2022-11-25T14:54:16;100656.14;;;8.92;88.26
62952;BME280;52163;52.212;-1.002;2022-11-25T14:56:43;100658.54;;;8.89;88.01
62952;BME280;52163;52.212;-1.002;2022-11-25T14:59:09;100663.67;;;8.89;88.53
62952;BME280;52163;52.212;-1.002;2022-11-25T15:01:37;100662.45;;;8.89;88.94